createdAt,value
2022-08-01T00:00:10.046Z,18.63
2022-08-01T00:02:43.016Z,18.45
2022-08-01T00:05:15.941Z,18.81
2022-08-01T00:07:48.529Z,18.69
2022-08-01T00:10:21.951Z,18.84
2022-08-01T00:12:54.549Z,18.52
2022-08-01T00:15:27.124Z,18.86
2022-08-01T00:17:59.683Z,18.67
2022-08-01T00:20:32.372Z,18.77
2022-08-01T00:23:04.965Z,18.82
2022-08-01T00:25:37.611Z,18.87
2022-08-01T00:28:10.759Z,18.47
2022-08-01T00:30:43.325Z,18.54
2022-08-01T00:33:15.982Z,18.64
2022-08-01T00:35:48.536Z,18.71
2022-08-01T00:38:21.157Z,18.62
2022-08-01T00:40:55.487Z,18.73
2022-08-01T00:43:28.232Z,18.67
2022-08-01T00:46:00.919Z,18.73
2022-08-01T00:48:33.468Z,18.70
2022-08-01T00:51:09.114Z,18.88
2022-08-01T00:53:51.138Z,18.83
2022-08-01T00:56:27.188Z,18.67
2022-08-01T00:59:00.253Z,18.63
2022-08-01T01:01:39.661Z,18.23
2022-08-01T01:04:12.777Z,18.67
2022-08-01T01:07:00.311Z,18.55
2022-08-01T01:10:02.136Z,18.77
2022-08-01T01:12:55.447Z,18.68
2022-08-01T01:15:37.967Z,18.61
2022-08-01T01:18:31.548Z,18.43
2022-08-01T01:21:21.110Z,18.82
2022-08-01T01:24:34.104Z,18.82
2022-08-01T01:27:46.251Z,18.74
2022-08-01T01:30:20.179Z,18.21
2022-08-01T01:32:59.532Z,18.74
2022-08-01T01:35:39.419Z,18.83
2022-08-01T01:38:22.064Z,18.50
2022-08-01T01:40:58.681Z,18.47
2022-08-01T01:43:34.015Z,18.63
2022-08-01T01:46:10.178Z,18.85
2022-08-01T01:48:56.576Z,18.78
2022-08-01T01:51:30.605Z,18.72
2022-08-01T01:54:06.569Z,18.52
2022-08-01T01:56:49.626Z,18.75
2022-08-01T01:59:42.327Z,18.55
2022-08-01T02:02:28.527Z,18.35
2022-08-01T02:05:13.007Z,18.35
2022-08-01T02:07:46.546Z,18.81
2022-08-01T02:10:21.997Z,18.32
2022-08-01T02:13:05.124Z,18.56
2022-08-01T02:15:39.308Z,18.63
2022-08-01T02:18:33.562Z,18.40
2022-08-01T02:21:21.422Z,18.32
2022-08-01T02:24:09.406Z,18.12
2022-08-01T02:26:50.736Z,18.49
2022-08-01T02:29:31.183Z,18.37
2022-08-01T02:32:08.930Z,18.29
2022-08-01T02:34:47.581Z,18.29
2022-08-01T02:37:22.692Z,18.25
2022-08-01T02:39:57.074Z,18.56
2022-08-01T02:42:33.401Z,18.21
2022-08-01T02:45:09.741Z,18.32
2022-08-01T02:47:46.976Z,18.24
2022-08-01T02:50:21.456Z,18.38
2022-08-01T02:52:58.159Z,18.23
2022-08-01T02:55:35.120Z,18.24
2022-08-01T02:58:13.791Z,18.35
2022-08-01T03:00:48.569Z,18.13
2022-08-01T03:03:21.894Z,18.02
2022-08-01T03:05:55.937Z,18.44
2022-08-01T03:08:31.495Z,18.59
2022-08-01T03:11:07.925Z,18.42
2022-08-01T03:13:45.684Z,17.99
2022-08-01T03:16:22.718Z,18.03
2022-08-01T03:18:58.211Z,18.31
2022-08-01T03:21:32.988Z,18.28
2022-08-01T03:24:08.897Z,18.21
2022-08-01T03:26:44.381Z,18.55
2022-08-01T03:29:21.943Z,18.24
2022-08-01T03:31:54.803Z,18.16
2022-08-01T03:34:28.489Z,17.97
2022-08-01T03:37:27.839Z,18.18
2022-08-01T03:40:12.116Z,18.59
2022-08-01T03:43:01.434Z,18.60
2022-08-01T03:45:42.363Z,18.24
2022-08-01T03:48:19.759Z,18.26
2022-08-01T03:50:54.093Z,18.36
2022-08-01T03:53:33.216Z,18.02
2022-08-01T03:56:09.626Z,18.28
2022-08-01T03:58:44.657Z,18.56
2022-08-01T04:01:23.084Z,18.20
2022-08-01T04:03:56.164Z,18.37
2022-08-01T04:06:30.160Z,18.29
2022-08-01T04:09:02.892Z,18.16
2022-08-01T04:11:35.884Z,18.42
2022-08-01T04:14:09.546Z,17.98
2022-08-01T04:16:42.389Z,18.35
2022-08-01T04:19:15.093Z,17.97
2022-08-01T04:21:48.797Z,18.63
2022-08-01T04:24:25.823Z,18.26
2022-08-01T04:27:02.442Z,18.10
2022-08-01T04:29:37.103Z,18.57
2022-08-01T04:32:16.118Z,18.83
2022-08-01T04:34:51.852Z,18.31
2022-08-01T04:37:26.934Z,18.46
2022-08-01T04:40:01.927Z,18.46
2022-08-01T04:42:35.024Z,18.61
2022-08-01T04:45:09.994Z,18.59
2022-08-01T04:47:44.677Z,18.29
2022-08-01T04:50:18.183Z,18.18
2022-08-01T04:52:52.061Z,18.73
2022-08-01T04:55:24.727Z,18.81
2022-08-01T04:57:57.599Z,18.36
2022-08-01T05:00:30.240Z,18.53
2022-08-01T05:03:03.954Z,18.67
2022-08-01T05:05:36.608Z,18.61
2022-08-01T05:08:19.552Z,18.61
2022-08-01T05:10:52.380Z,18.49
2022-08-01T05:13:25.083Z,18.66
2022-08-01T05:15:57.833Z,18.51
2022-08-01T05:18:30.583Z,18.63
2022-08-01T05:21:03.761Z,18.67
2022-08-01T05:23:45.463Z,18.94
2022-08-01T05:26:18.641Z,18.93
2022-08-01T05:28:51.403Z,19.50
2022-08-01T05:31:24.096Z,19.21
2022-08-01T05:33:56.881Z,19.22
2022-08-01T05:36:30.649Z,19.15
2022-08-01T05:39:13.503Z,19.21
2022-08-01T05:41:46.293Z,19.59
2022-08-01T05:44:19.002Z,19.58
2022-08-01T05:46:52.423Z,19.07
2022-08-01T05:49:25.309Z,19.33
2022-08-01T05:51:58.037Z,18.98
2022-08-01T05:54:36.130Z,19.00
2022-08-01T05:57:08.969Z,19.74
2022-08-01T05:59:41.806Z,19.39
2022-08-01T06:02:16.986Z,19.67
2022-08-01T06:04:52.966Z,19.55
2022-08-01T06:07:38.999Z,19.98
2022-08-01T06:10:12.505Z,19.37
2022-08-01T06:12:45.304Z,19.87
2022-08-01T06:15:23.678Z,19.54
2022-08-01T06:17:56.670Z,19.56
2022-08-01T06:20:38.302Z,19.86
2022-08-01T06:23:28.516Z,20.00
2022-08-01T06:26:04.309Z,19.71
2022-08-01T06:28:37.887Z,20.15
2022-08-01T06:31:33.745Z,20.25
2022-08-01T06:34:08.077Z,20.24
2022-08-01T06:36:43.742Z,19.71
2022-08-01T06:39:20.227Z,20.26
2022-08-01T06:42:00.338Z,19.62
2022-08-01T06:44:41.001Z,20.12
2022-08-01T06:47:14.441Z,20.54
2022-08-01T06:49:47.289Z,20.74
2022-08-01T06:52:24.560Z,21.07
2022-08-01T06:55:06.094Z,20.86
2022-08-01T06:57:55.942Z,21.12
2022-08-01T07:00:29.337Z,20.54
2022-08-01T07:03:02.079Z,20.91
2022-08-01T07:05:39.719Z,21.05
2022-08-01T07:08:22.052Z,21.17
2022-08-01T07:11:00.936Z,21.32
2022-08-01T07:13:43.608Z,21.36
2022-08-01T07:16:32.090Z,22.36
2022-08-01T07:19:24.209Z,22.16
2022-08-01T07:22:08.130Z,22.63
2022-08-01T07:24:47.951Z,22.21
2022-08-01T07:27:27.015Z,21.86
2022-08-01T07:30:00.242Z,21.89
2022-08-01T07:32:38.448Z,22.08
2022-08-01T07:35:38.785Z,22.76
2022-08-01T07:38:12.976Z,22.11
2022-08-01T07:40:48.255Z,22.61
2022-08-01T07:43:26.079Z,22.49
2022-08-01T07:46:04.662Z,22.58
2022-08-01T07:48:54.318Z,22.06
2022-08-01T07:51:32.194Z,23.20
2022-08-01T07:54:34.811Z,22.46
2022-08-01T07:57:17.006Z,23.37
2022-08-01T08:00:29.692Z,22.64
2022-08-01T08:03:08.272Z,22.09
2022-08-01T08:08:44.389Z,22.28
2022-08-01T08:11:36.723Z,22.97
2022-08-01T08:14:48.830Z,22.54
2022-08-01T08:17:35.641Z,22.80
2022-08-01T08:20:34.522Z,22.86
2022-08-01T08:23:42.721Z,22.79
2022-08-01T08:26:18.387Z,23.01
2022-08-01T08:29:04.640Z,23.61
2022-08-01T08:31:52.519Z,24.01
2022-08-01T08:37:24.799Z,25.50
2022-08-01T08:43:15.146Z,26.87
2022-08-01T08:46:11.211Z,26.96
2022-08-01T08:48:59.366Z,27.89
2022-08-01T08:52:02.814Z,27.50
2022-08-01T08:55:27.179Z,27.52
2022-08-01T09:01:28.624Z,26.19
2022-08-01T09:04:26.069Z,26.50
2022-08-01T09:07:31.387Z,26.87
2022-08-01T09:10:29.234Z,26.70
2022-08-01T09:13:26.815Z,25.89
2022-08-01T09:16:27.188Z,24.97
2022-08-01T09:19:57.684Z,24.23
2022-08-01T09:25:47.963Z,28.00
2022-08-01T09:28:39.008Z,29.53
2022-08-01T09:31:27.496Z,30.23
2022-08-01T09:34:47.527Z,29.91
2022-08-01T09:37:41.457Z,30.21
2022-08-01T09:41:06.946Z,29.15
2022-08-01T09:44:05.575Z,27.90
2022-08-01T09:49:59.261Z,25.40
2022-08-01T09:54:20.709Z,25.03
2022-08-01T09:55:37.152Z,24.58
2022-08-01T09:58:29.483Z,26.11
2022-08-01T10:01:27.129Z,28.24
2022-08-01T10:07:43.616Z,31.36
2022-08-01T10:13:36.414Z,30.79
2022-08-01T10:16:39.556Z,31.27
2022-08-01T10:19:31.819Z,29.62
2022-08-01T10:19:37.607Z,31.55
2022-08-01T10:25:46.855Z,26.00
2022-08-01T10:29:45.071Z,25.88
2022-08-01T10:32:07.581Z,28.06
2022-08-01T10:38:10.910Z,26.85
2022-08-01T10:41:06.455Z,27.66
2022-08-01T10:50:59.402Z,31.65
2022-08-01T10:53:42.970Z,31.38
2022-08-01T10:56:21.480Z,32.60
2022-08-01T10:59:49.361Z,29.55
2022-08-01T11:02:11.976Z,26.78
2022-08-01T11:05:39.849Z,26.00
2022-08-01T11:08:24.046Z,25.48
2022-08-01T11:11:37.600Z,25.79
2022-08-01T11:15:17.243Z,25.78
2022-08-01T11:17:49.655Z,27.85
2022-08-01T11:23:52.124Z,28.40
2022-08-01T11:26:32.463Z,27.91
2022-08-01T11:29:50.020Z,28.17
2022-08-01T11:32:29.325Z,28.57
2022-08-01T11:35:22.261Z,27.56
2022-08-01T11:38:01.411Z,27.13
2022-08-01T11:40:58.115Z,27.61
2022-08-01T11:44:03.485Z,27.37
2022-08-01T11:47:15.014Z,27.65
2022-08-01T11:49:57.307Z,27.36
2022-08-01T11:55:32.171Z,28.64
2022-08-01T11:58:08.899Z,27.47
2022-08-01T12:01:01.517Z,27.31
2022-08-01T12:03:58.195Z,27.54
2022-08-01T12:06:36.905Z,26.74
2022-08-01T12:09:36.167Z,27.72
2022-08-01T12:12:10.610Z,26.51
2022-08-01T12:14:46.984Z,25.39
2022-08-01T12:17:19.807Z,25.17
2022-08-01T12:20:04.131Z,24.56
2022-08-01T12:22:42.703Z,24.53
2022-08-01T12:25:18.871Z,24.70
2022-08-01T12:27:57.980Z,24.54
2022-08-01T12:30:36.488Z,25.05
2022-08-01T12:33:19.928Z,25.72
2022-08-01T12:36:27.249Z,25.63
2022-08-01T12:39:03.707Z,26.27
2022-08-01T12:41:44.239Z,25.81
2022-08-01T12:44:17.852Z,25.86
2022-08-01T12:46:51.045Z,25.53
2022-08-01T12:49:39.385Z,25.09
2022-08-01T12:52:13.524Z,25.92
2022-08-01T12:55:34.568Z,26.66
2022-08-01T12:58:16.734Z,26.43
2022-08-01T13:01:03.018Z,26.56
2022-08-01T13:03:58.366Z,26.38
2022-08-01T13:06:44.301Z,25.85
2022-08-01T13:09:26.114Z,24.99
2022-08-01T13:12:11.028Z,26.62
2022-08-01T13:14:46.865Z,26.88
2022-08-01T13:17:40.796Z,26.63
2022-08-01T13:20:33.440Z,25.56
2022-08-01T13:23:23.450Z,24.61
2022-08-01T13:26:52.170Z,25.32
2022-08-01T13:29:53.826Z,24.77
2022-08-01T13:32:36.010Z,24.75
2022-08-01T13:35:16.801Z,25.22
2022-08-01T13:37:50.975Z,25.02
2022-08-01T13:40:30.585Z,25.83
2022-08-01T13:43:12.929Z,25.29
2022-08-01T13:45:47.025Z,26.36
2022-08-01T13:48:20.954Z,27.68
2022-08-01T13:51:20.061Z,27.74
2022-08-01T13:53:58.978Z,28.42
2022-08-01T13:56:34.484Z,28.94
2022-08-01T13:59:29.280Z,29.67
2022-08-01T14:02:02.433Z,29.37
2022-08-01T14:04:45.311Z,27.98
2022-08-01T14:07:18.114Z,28.02
2022-08-01T14:10:24.278Z,27.05
2022-08-01T14:12:56.754Z,26.05
2022-08-01T14:15:39.130Z,25.58
2022-08-01T14:18:28.649Z,25.03
2022-08-01T14:21:05.536Z,24.84
2022-08-01T14:23:41.231Z,24.72
2022-08-01T14:26:14.774Z,24.59
2022-08-01T14:28:51.030Z,25.10
2022-08-01T14:31:34.602Z,24.70
2022-08-01T14:34:10.299Z,25.37
2022-08-01T14:36:48.616Z,25.48
2022-08-01T14:39:24.629Z,25.88
2022-08-01T14:42:21.156Z,26.42
2022-08-01T14:44:56.493Z,26.13
2022-08-01T14:47:40.808Z,27.08
2022-08-01T14:50:17.363Z,27.21
2022-08-01T14:52:54.852Z,26.74
2022-08-01T14:56:01.081Z,26.14
2022-08-01T14:58:49.326Z,25.36
2022-08-01T15:01:30.810Z,25.11
2022-08-01T15:04:17.411Z,27.47
2022-08-01T15:08:34.546Z,28.61
2022-08-01T15:10:07.369Z,28.29
2022-08-01T15:12:50.237Z,28.71
2022-08-01T15:15:32.564Z,28.44
2022-08-01T15:18:10.959Z,28.45
2022-08-01T15:20:55.410Z,28.35
2022-08-01T15:23:28.661Z,28.84
2022-08-01T15:26:28.537Z,28.55
2022-08-01T15:29:01.227Z,27.63
2022-08-01T15:31:36.388Z,27.75
2022-08-01T15:35:05.783Z,27.16
2022-08-01T15:37:42.762Z,27.96
2022-08-01T15:40:20.754Z,28.83
2022-08-01T15:43:09.298Z,28.96
2022-08-01T15:45:49.139Z,28.21
2022-08-01T15:51:10.870Z,25.14
2022-08-01T15:53:43.649Z,26.09
2022-08-01T15:56:29.229Z,27.64
2022-08-01T15:59:02.239Z,28.00
2022-08-01T16:04:41.588Z,28.73
2022-08-01T16:07:14.586Z,27.84
2022-08-01T16:09:56.709Z,26.07
2022-08-01T16:12:35.419Z,25.08
2022-08-01T16:15:14.123Z,25.54
2022-08-01T16:18:15.938Z,26.34
2022-08-01T16:20:48.684Z,26.01
2022-08-01T16:23:21.240Z,26.15
2022-08-01T16:25:54.438Z,27.08
2022-08-01T16:28:27.052Z,27.08
2022-08-01T16:31:15.204Z,27.27
2022-08-01T16:33:54.068Z,27.71
2022-08-01T16:36:28.885Z,27.99
2022-08-01T16:39:01.686Z,27.60
2022-08-01T16:41:37.589Z,26.02
2022-08-01T16:44:28.654Z,25.90
2022-08-01T16:47:09.804Z,25.86
2022-08-01T16:49:44.141Z,26.20
2022-08-01T16:52:16.755Z,27.03
2022-08-01T16:54:57.412Z,26.51
2022-08-01T16:57:42.838Z,26.17
2022-08-01T17:00:22.760Z,25.78
2022-08-01T17:03:00.079Z,26.06
2022-08-01T17:05:39.422Z,26.43
2022-08-01T17:08:15.061Z,26.06
2022-08-01T17:10:48.643Z,26.69
2022-08-01T17:13:23.541Z,26.85
2022-08-01T17:16:01.458Z,26.42
2022-08-01T17:18:47.477Z,26.49
2022-08-01T17:21:25.728Z,27.07
2022-08-01T17:36:11.878Z,22.44
2022-08-01T17:39:02.175Z,22.38
2022-08-01T17:41:45.663Z,21.70
2022-08-01T17:47:34.647Z,21.49
2022-08-01T17:50:12.826Z,21.62
2022-08-01T17:52:46.302Z,21.26
2022-08-01T17:55:55.876Z,20.93
2022-08-01T17:58:45.062Z,20.78
2022-08-01T18:01:27.840Z,21.14
2022-08-01T18:04:06.136Z,21.29
2022-08-01T18:06:39.009Z,20.72
2022-08-01T18:09:39.542Z,21.16
2022-08-01T18:12:20.089Z,20.99
2022-08-01T18:14:58.822Z,20.60
2022-08-01T18:17:33.201Z,20.54
2022-08-01T18:20:07.011Z,20.57
2022-08-01T18:22:44.892Z,20.47
2022-08-01T18:25:23.660Z,20.74
2022-08-01T18:28:16.477Z,19.98
2022-08-01T18:31:02.091Z,20.08
2022-08-01T18:33:37.698Z,19.79
2022-08-01T18:36:21.116Z,19.71
2022-08-01T18:39:20.207Z,19.38
2022-08-01T18:42:04.242Z,20.02
2022-08-01T18:44:37.490Z,19.44
2022-08-01T18:47:16.302Z,19.24
2022-08-01T18:50:07.654Z,19.23
2022-08-01T18:52:48.221Z,18.88
2022-08-01T18:55:23.246Z,19.08
2022-08-01T18:57:56.035Z,18.82
2022-08-01T19:00:40.101Z,18.90
2022-08-01T19:03:25.838Z,18.98
2022-08-01T19:06:01.971Z,18.52
2022-08-01T19:08:38.438Z,18.41
2022-08-01T19:11:30.126Z,18.13
2022-08-01T19:14:07.306Z,18.69
2022-08-01T19:16:40.175Z,17.91
2022-08-01T19:19:14.856Z,18.29
2022-08-01T19:22:09.821Z,17.75
2022-08-01T19:24:49.971Z,17.37
2022-08-01T19:27:30.058Z,17.28
2022-08-01T19:30:10.025Z,17.47
2022-08-01T19:32:45.279Z,17.15
2022-08-01T19:35:22.656Z,17.16
2022-08-01T19:38:01.793Z,17.09
2022-08-01T19:40:42.972Z,16.50
2022-08-01T19:43:24.160Z,16.47
2022-08-01T19:45:59.514Z,17.10
2022-08-01T19:48:43.101Z,16.20
2022-08-01T19:51:22.687Z,16.61
2022-08-01T19:54:10.892Z,16.12
2022-08-01T19:56:46.968Z,16.42
2022-08-01T19:59:24.872Z,16.03
2022-08-01T20:02:07.083Z,16.15
2022-08-01T20:04:39.930Z,16.36
2022-08-01T20:07:14.356Z,16.05
2022-08-01T20:09:50.716Z,16.23
2022-08-01T20:12:29.439Z,15.99
2022-08-01T20:15:03.176Z,15.66
2022-08-01T20:17:36.315Z,15.44
2022-08-01T20:20:14.572Z,15.53
2022-08-01T20:22:49.634Z,16.14
2022-08-01T20:25:37.343Z,15.36
2022-08-01T20:28:16.981Z,15.56
2022-08-01T20:31:03.506Z,15.44
2022-08-01T20:33:49.143Z,15.87
2022-08-01T20:36:26.092Z,15.32
2022-08-01T20:39:01.470Z,15.36
2022-08-01T20:41:38.615Z,15.25
2022-08-01T20:44:14.509Z,14.79
2022-08-01T20:46:54.425Z,14.88
2022-08-01T20:49:27.676Z,15.11
2022-08-01T20:52:02.095Z,14.57
2022-08-01T20:54:45.317Z,14.52
2022-08-01T20:57:32.347Z,14.37
2022-08-01T21:00:07.945Z,14.26
2022-08-01T21:02:54.453Z,14.59
2022-08-01T21:05:41.453Z,14.82
2022-08-01T21:08:50.035Z,14.45
2022-08-01T21:11:36.598Z,14.37
2022-08-01T21:14:17.903Z,14.30
2022-08-01T21:17:03.794Z,13.87
2022-08-01T21:19:40.277Z,14.06
2022-08-01T21:22:27.283Z,13.63
2022-08-01T21:25:17.449Z,13.66
2022-08-01T21:27:52.519Z,13.67
2022-08-01T21:30:27.340Z,13.57
2022-08-01T21:33:04.253Z,13.18
2022-08-01T21:35:37.719Z,13.98
2022-08-01T21:38:13.205Z,13.36
2022-08-01T21:40:48.979Z,13.16
2022-08-01T21:43:23.032Z,13.44
2022-08-01T21:45:58.125Z,13.27
2022-08-01T21:48:32.395Z,12.99
2022-08-01T21:51:40.796Z,13.42
2022-08-01T21:54:29.463Z,13.35
2022-08-01T21:57:41.839Z,13.57
2022-08-01T22:00:25.510Z,13.16
2022-08-01T22:03:14.952Z,13.37
2022-08-01T22:05:53.466Z,12.81
2022-08-01T22:08:40.134Z,13.03
2022-08-01T22:11:21.388Z,12.34
2022-08-01T22:14:00.237Z,12.73
2022-08-01T22:16:40.355Z,12.53
2022-08-01T22:19:37.843Z,13.00
2022-08-01T22:22:50.985Z,12.92
2022-08-01T22:25:16.458Z,13.03
2022-08-01T22:28:08.483Z,12.83
2022-08-01T22:30:43.208Z,12.67
2022-08-01T22:33:17.921Z,13.04
2022-08-01T22:35:54.978Z,12.89
2022-08-01T22:38:27.972Z,12.92
2022-08-01T22:41:09.543Z,12.44
2022-08-01T22:44:18.604Z,12.86
2022-08-01T22:47:10.083Z,12.56
2022-08-01T22:50:03.058Z,12.57
2022-08-01T22:52:56.528Z,12.52
2022-08-01T22:55:57.872Z,12.73
2022-08-01T22:58:26.709Z,12.46
2022-08-01T23:01:06.826Z,12.76
2022-08-01T23:03:49.643Z,12.71
2022-08-01T23:06:41.336Z,12.74
2022-08-01T23:09:15.269Z,12.49
2022-08-01T23:11:49.446Z,12.75
2022-08-01T23:14:23.132Z,12.90
2022-08-01T23:17:03.075Z,12.85
2022-08-01T23:20:07.498Z,12.92
2022-08-01T23:22:42.692Z,13.03
2022-08-01T23:25:16.742Z,12.87
2022-08-01T23:27:54.199Z,12.62
2022-08-01T23:30:38.987Z,13.18
2022-08-01T23:33:11.779Z,12.56
2022-08-01T23:35:48.855Z,12.48
2022-08-01T23:38:21.640Z,13.18
2022-08-01T23:40:54.538Z,13.26
2022-08-01T23:43:27.355Z,13.29
2022-08-01T23:46:04.449Z,12.78
2022-08-01T23:48:38.921Z,13.29
2022-08-01T23:51:24.035Z,12.88
2022-08-01T23:54:00.561Z,12.89
2022-08-01T23:56:33.858Z,12.83
2022-08-01T23:59:06.638Z,13.24
